Time;durP1;ratioP1;P1;durP2;ratioP2;P2;SDS_P1;SDS_P2;PMS_P1;PMS_P2;Temp;Humidity;BMP_temperature;BMP_pressure;BME280_temperature;BME280_humidity;BME280_pressure;Samples;Min_cycle;Max_cycle;Signal;HPM_P1;HPM_P2
2022/09/14 00:00:29;;;;;;;;;;;;;;;22.11;55.55;95003.69;10325448;28;1886;-45
2022/09/14 00:05:29;;;;;;;;;;;;;;;22.11;55.54;94998.41;10322686;28;1993;-43
2022/09/14 00:10:29;;;;;;;;;;;;;;;22.10;55.52;94988.91;10321344;28;1948;-42
2022/09/14 00:15:30;;;;;;;;;;;;;;;22.10;55.28;94980.22;10323426;28;2006;-45
2022/09/14 00:20:30;;;;;;;;;;;;;;;22.09;55.46;94982.06;10324929;28;2026;-44
2022/09/14 00:25:31;;;;;;;;;;;;;;;22.10;55.43;94983.63;10323579;28;1917;-43
2022/09/14 00:30:32;;;;;;;;;;;;;;;22.09;55.39;94994.50;10325023;28;1969;-42
2022/09/14 00:35:33;;;;;;;;;;;;;;;22.09;55.32;94987.34;10323522;28;1969;-48
2022/09/14 00:40:34;;;;;;;;;;;;;;;22.09;55.41;94984.69;10322604;28;1843;-42
2022/09/14 00:45:35;;;;;;;;;;;;;;;22.09;55.30;94979.44;10317348;28;2047;-43
2022/09/14 00:50:35;;;;;;;;;;;;;;;22.10;55.30;94970.44;10323153;28;1898;-44
2022/09/14 00:55:36;;;;;;;;;;;;;;;22.10;55.05;94969.66;10324151;28;1963;-42
2022/09/14 01:00:37;;;;;;;;;;;;;;;22.08;55.25;94956.78;10323991;28;1985;-42
2022/09/14 01:05:40;;;;;;;;;;;;;;;22.08;54.92;94943.56;10321805;28;1904;-42
2022/09/14 01:10:56;;;;;;;;;;;;;;;22.08;55.09;94930.38;10326662;28;1922;-43
2022/09/14 01:16:15;;;;;;;;;;;;;;;22.08;55.08;94922.47;10338350;28;1985;-43
2022/09/14 01:21:20;;;;;;;;;;;;;;;22.09;54.81;94917.97;10324359;28;1900;-47
2022/09/14 01:26:26;;;;;;;;;;;;;;;22.08;55.01;94898.69;10319910;28;1849;-42
2022/09/14 01:31:28;;;;;;;;;;;;;;;22.08;54.81;94908.47;10321949;28;1913;-42
2022/09/14 01:36:29;;;;;;;;;;;;;;;22.09;55.03;94888.94;10322812;28;1918;-43
2022/09/14 01:41:30;;;;;;;;;;;;;;;22.09;54.90;94892.31;10324033;28;1901;-42
2022/09/14 01:46:41;;;;;;;;;;;;;;;22.09;54.58;94889.69;10331926;28;1913;-42
2022/09/14 01:51:46;;;;;;;;;;;;;;;22.08;54.98;94882.88;10331436;28;2080;-43
2022/09/14 01:56:56;;;;;;;;;;;;;;;22.08;54.77;94867.03;10332159;28;1918;-44
2022/09/14 02:02:00;;;;;;;;;;;;;;;22.08;54.76;94869.66;10349712;28;1930;-42
2022/09/14 02:07:00;;;;;;;;;;;;;;;22.09;54.83;94881.00;10331667;28;1937;-43
2022/09/14 02:12:01;;;;;;;;;;;;;;;22.10;54.71;94885.19;10329407;28;2038;-48
2022/09/14 02:17:01;;;;;;;;;;;;;;;22.09;54.66;94876.50;10330629;28;1966;-48
2022/09/14 02:22:01;;;;;;;;;;;;;;;22.09;54.76;94865.94;10328541;28;1813;-49
2022/09/14 02:27:02;;;;;;;;;;;;;;;22.08;54.60;94882.88;10325489;28;1921;-48
2022/09/14 02:32:23;;;;;;;;;;;;;;;22.08;54.67;94888.16;10363640;28;1861;-49
2022/09/14 02:37:34;;;;;;;;;;;;;;;22.08;54.37;94885.50;10326164;28;1980;-48
2022/09/14 02:42:52;;;;;;;;;;;;;;;22.09;54.62;94888.94;10324818;28;1937;-48
2022/09/14 02:48:00;;;;;;;;;;;;;;;22.08;54.45;94872.31;10327597;28;1777;-48
2022/09/14 02:53:00;;;;;;;;;;;;;;;22.08;54.58;94861.75;10330370;28;1870;-49
2022/09/14 02:58:04;;;;;;;;;;;;;;;22.09;54.58;94842.19;10354275;28;1906;-49
2022/09/14 03:03:05;;;;;;;;;;;;;;;22.09;54.37;94826.34;10327267;28;1925;-48
2022/09/14 03:08:05;;;;;;;;;;;;;;;22.08;54.16;94824.81;10329493;28;2178;-48
2022/09/14 03:13:06;;;;;;;;;;;;;;;22.09;54.52;94813.16;10325489;28;2230;-48
2022/09/14 03:18:06;;;;;;;;;;;;;;;22.09;54.49;94805.22;10330078;28;2002;-49
2022/09/14 03:23:07;;;;;;;;;;;;;;;22.07;54.36;94823.22;10324495;28;1924;-48
2022/09/14 03:28:08;;;;;;;;;;;;;;;22.07;54.39;94827.75;10324384;28;1941;-49
2022/09/14 03:33:08;;;;;;;;;;;;;;;22.08;54.36;94826.66;10328300;28;2096;-48
2022/09/14 03:38:08;;;;;;;;;;;;;;;22.06;54.42;94821.69;10325961;28;2090;-48
2022/09/14 03:43:11;;;;;;;;;;;;;;;22.07;54.33;94812.69;10321729;28;1905;-48
2022/09/14 03:48:14;;;;;;;;;;;;;;;22.06;54.31;94799.78;10323980;28;1906;-48
2022/09/14 03:53:14;;;;;;;;;;;;;;;22.07;54.31;94796.84;10325870;28;1952;-49
2022/09/14 03:58:14;;;;;;;;;;;;;;;22.07;54.09;94794.19;10323846;28;2005;-49
2022/09/14 04:03:15;;;;;;;;;;;;;;;22.07;54.08;94801.38;10324434;28;1972;-48
2022/09/14 04:08:15;;;;;;;;;;;;;;;22.06;54.11;94805.06;10318742;28;1854;-48
2022/09/14 04:13:16;;;;;;;;;;;;;;;22.06;54.11;94815.63;10317144;28;1929;-41
2022/09/14 04:18:16;;;;;;;;;;;;;;;22.07;53.96;94823.22;10344373;28;4355;-41
2022/09/14 04:23:16;;;;;;;;;;;;;;;22.07;53.96;94828.50;10328840;28;2000;-48
2022/09/14 04:28:17;;;;;;;;;;;;;;;22.06;53.91;94832.25;10318510;28;1921;-49
2022/09/14 04:33:17;;;;;;;;;;;;;;;22.06;54.30;94832.25;10319482;28;1998;-41
2022/09/14 04:38:17;;;;;;;;;;;;;;;22.07;53.94;94831.16;10321890;28;1898;-42
2022/09/14 04:43:17;;;;;;;;;;;;;;;22.06;54.13;94832.25;10319931;28;2075;-43
2022/09/14 04:48:18;;;;;;;;;;;;;;;22.07;54.17;94811.91;10324419;28;1902;-49
2022/09/14 04:53:18;;;;;;;;;;;;;;;22.05;54.31;94808.81;10323483;28;1976;-48
2022/09/14 04:58:18;;;;;;;;;;;;;;;22.07;54.23;94807.41;10316456;28;2006;-49
2022/09/14 05:03:19;;;;;;;;;;;;;;;22.08;54.02;94801.06;10322990;28;1918;-49
2022/09/14 05:08:19;;;;;;;;;;;;;;;22.08;54.30;94808.19;10320720;28;1890;-48
2022/09/14 05:13:19;;;;;;;;;;;;;;;22.08;54.31;94806.31;10319432;28;2306;-49
2022/09/14 05:18:20;;;;;;;;;;;;;;;22.07;54.46;94815.31;10327541;28;1936;-48
2022/09/14 05:23:20;;;;;;;;;;;;;;;22.09;54.38;94810.50;10327528;28;1858;-48
2022/09/14 05:28:20;;;;;;;;;;;;;;;22.09;54.17;94799.94;10318760;28;2025;-49
2022/09/14 05:33:21;;;;;;;;;;;;;;;22.11;54.07;94807.59;10326838;28;2008;-49
2022/09/14 05:38:21;;;;;;;;;;;;;;;22.11;54.07;94800.44;10322753;28;2162;-42
2022/09/14 05:43:22;;;;;;;;;;;;;;;22.11;54.31;94797.03;10322330;28;1869;-41
2022/09/14 05:48:23;;;;;;;;;;;;;;;22.10;53.96;94790.97;10344128;28;1892;-42
2022/09/14 05:53:24;;;;;;;;;;;;;;;22.11;54.21;94787.25;10325678;28;1911;-48
2022/09/14 05:58:25;;;;;;;;;;;;;;;22.11;54.26;94792.53;10326908;28;1935;-49
2022/09/14 06:03:25;;;;;;;;;;;;;;;22.12;53.83;94794.06;10329217;28;1917;-48
2022/09/14 06:08:26;;;;;;;;;;;;;;;22.13;54.14;94798.28;10326532;28;2077;-48
2022/09/14 06:13:26;;;;;;;;;;;;;;;22.12;54.01;94799.34;10327030;28;1946;-48
2022/09/14 06:18:28;;;;;;;;;;;;;;;22.11;54.23;94807.59;10344589;28;1990;-49
2022/09/14 06:23:28;;;;;;;;;;;;;;;22.09;54.21;94802.59;10326638;28;2000;-48
2022/09/14 06:28:28;;;;;;;;;;;;;;;22.10;54.10;94806.81;10327847;28;1886;-49
2022/09/14 06:33:29;;;;;;;;;;;;;;;22.11;53.85;94810.22;10325799;28;1919;-49
2022/09/14 06:38:29;;;;;;;;;;;;;;;22.11;53.79;94807.59;10330385;28;1996;-49
2022/09/14 06:43:30;;;;;;;;;;;;;;;22.11;53.98;94815.50;10329863;28;1866;-49
2022/09/14 06:48:31;;;;;;;;;;;;;;;22.10;53.85;94820.00;10333426;28;2004;-48
2022/09/14 06:53:31;;;;;;;;;;;;;;;22.12;53.55;94811.78;10328017;28;1980;-48
2022/09/14 06:58:32;;;;;;;;;;;;;;;22.11;53.99;94797.81;10332614;28;2008;-49
2022/09/14 07:03:34;;;;;;;;;;;;;;;22.09;53.91;94794.66;10327493;28;1925;-48
2022/09/14 07:08:34;;;;;;;;;;;;;;;22.10;53.93;94790.97;10320695;28;1948;-41
2022/09/14 07:13:35;;;;;;;;;;;;;;;22.10;53.95;94812.09;10321340;28;1937;-41
2022/09/14 07:18:35;;;;;;;;;;;;;;;22.11;54.07;94812.88;10327343;28;1853;-42
2022/09/14 07:23:36;;;;;;;;;;;;;;;22.10;54.06;94809.44;10322849;28;2110;-43
2022/09/14 07:28:37;;;;;;;;;;;;;;;22.10;54.25;94801.53;10323243;28;2017;-41
2022/09/14 07:33:37;;;;;;;;;;;;;;;22.11;54.01;94808.38;10323123;28;2018;-43
2022/09/14 07:38:37;;;;;;;;;;;;;;;22.11;54.24;94810.22;10354297;28;2112;-41
2022/09/14 07:43:41;;;;;;;;;;;;;;;22.11;54.24;94802.31;10325668;28;2109;-41
2022/09/14 07:48:42;;;;;;;;;;;;;;;22.12;54.25;94809.91;10324009;28;2060;-41
2022/09/14 07:53:42;;;;;;;;;;;;;;;22.12;54.29;94806.50;10342159;28;2108;-40
2022/09/14 07:58:43;;;;;;;;;;;;;;;22.12;54.33;94814.41;10325227;28;1986;-42
2022/09/14 08:03:44;;;;;;;;;;;;;;;22.12;54.30;94819.69;10321301;28;2524;-41
2022/09/14 08:08:46;;;;;;;;;;;;;;;22.11;54.35;94828.69;10320244;28;2061;-45
2022/09/14 08:13:50;;;;;;;;;;;;;;;22.10;54.71;94838.47;10317461;28;2124;-43
2022/09/14 08:18:54;;;;;;;;;;;;;;;22.11;54.46;94837.41;10328697;28;2016;-49
2022/09/14 08:23:56;;;;;;;;;;;;;;;22.12;54.42;94835.53;10323149;28;2450;-49
2022/09/14 08:28:58;;;;;;;;;;;;;;;22.11;54.29;94834.75;10324711;28;1982;-41
2022/09/14 08:33:59;;;;;;;;;;;;;;;22.11;54.57;94834.75;10321696;28;2048;-43
2022/09/14 08:39:00;;;;;;;;;;;;;;;22.11;54.56;94834.75;10322130;28;2033;-44
2022/09/14 08:44:17;;;;;;;;;;;;;;;22.13;54.37;94843.16;10321345;28;2088;-49
2022/09/14 08:49:29;;;;;;;;;;;;;;;22.12;54.26;94840.81;10338017;28;2046;-48
2022/09/14 08:54:32;;;;;;;;;;;;;;;22.11;54.02;94834.75;10326652;28;2056;-48
2022/09/14 08:59:32;;;;;;;;;;;;;;;22.13;54.37;94847.66;10317887;28;2059;-49
2022/09/14 09:04:48;;;;;;;;;;;;;;;22.12;53.81;94854.78;10320403;28;2117;-41
2022/09/14 09:09:49;;;;;;;;;;;;;;;22.14;54.19;94871.09;10350821;28;2005;-41
2022/09/14 09:14:51;;;;;;;;;;;;;;;22.15;54.13;94867.38;10321881;28;2063;-44
2022/09/14 09:19:55;;;;;;;;;;;;;;;22.16;54.24;94868.16;10322966;28;2022;-42
2022/09/14 09:24:55;;;;;;;;;;;;;;;22.16;53.90;94870.78;10325076;28;2021;-44
2022/09/14 09:29:55;;;;;;;;;;;;;;;22.18;53.96;94865.97;10305471;28;2061;-42
2022/09/14 09:34:56;;;;;;;;;;;;;;;22.18;54.00;94866.75;10322940;28;2193;-41
2022/09/14 09:39:56;;;;;;;;;;;;;;;22.20;53.85;94875.16;10333288;28;2075;-41
2022/09/14 09:45:04;;;;;;;;;;;;;;;22.21;54.28;94870.66;10326908;28;2171;-41
2022/09/14 09:50:05;;;;;;;;;;;;;;;22.21;53.78;94868.81;10319155;28;2038;-43
2022/09/14 09:55:05;;;;;;;;;;;;;;;22.21;53.99;94878.59;10328019;28;2013;-49
2022/09/14 10:00:10;;;;;;;;;;;;;;;22.21;54.05;94876.72;10321194;28;2133;-43
2022/09/14 10:05:10;;;;;;;;;;;;;;;22.23;54.11;94871.13;10325979;28;2384;-44
2022/09/14 10:10:12;;;;;;;;;;;;;;;22.26;53.37;94857.31;10330144;28;2026;-42
2022/09/14 10:15:13;;;;;;;;;;;;;;;22.26;53.95;94844.91;10328493;28;2000;-42
2022/09/14 10:20:19;;;;;;;;;;;;;;;22.26;54.17;94833.56;10327439;28;2132;-41
2022/09/14 10:25:24;;;;;;;;;;;;;;;22.26;52.92;94820.34;10330369;28;2016;-48
2022/09/14 10:30:25;;;;;;;;;;;;;;;22.28;54.24;94818.97;10323503;28;2121;-48
2022/09/14 10:35:28;;;;;;;;;;;;;;;22.29;53.84;94831.09;10323214;28;2177;-48
2022/09/14 10:40:34;;;;;;;;;;;;;;;22.30;53.84;94811.53;10325197;28;2159;-48
2022/09/14 10:45:34;;;;;;;;;;;;;;;22.30;54.16;94805.44;10337375;28;1990;-48
2022/09/14 10:50:41;;;;;;;;;;;;;;;22.32;54.44;94790.88;10337368;28;2043;-48
2022/09/14 10:55:47;;;;;;;;;;;;;;;22.33;54.21;94773.16;10328006;28;1953;-42
2022/09/14 11:00:51;;;;;;;;;;;;;;;22.34;54.60;94793.22;10323332;28;2172;-43
2022/09/14 11:05:57;;;;;;;;;;;;;;;22.35;54.56;94787.63;10324097;28;2126;-42
2022/09/14 11:11:06;;;;;;;;;;;;;;;22.38;54.43;94788.88;10324360;28;2033;-42
2022/09/14 11:16:06;;;;;;;;;;;;;;;22.40;53.98;94782.19;10319766;28;2106;-42
2022/09/14 11:21:09;;;;;;;;;;;;;;;22.41;53.82;94769.78;10326430;28;2058;-42
2022/09/14 11:26:17;;;;;;;;;;;;;;;22.41;54.30;94775.84;10323427;28;2190;-41
2022/09/14 11:31:20;;;;;;;;;;;;;;;22.43;54.71;94760.47;10329742;28;2092;-42
2022/09/14 11:36:32;;;;;;;;;;;;;;;22.45;54.09;94760.94;10326783;28;2162;-43
2022/09/14 11:41:36;;;;;;;;;;;;;;;22.46;52.76;94745.88;10326955;28;2355;-42
2022/09/14 11:46:37;;;;;;;;;;;;;;;22.46;54.50;94749.25;10325794;28;2037;-48
2022/09/14 11:51:45;;;;;;;;;;;;;;;22.49;53.99;94740.75;10331256;28;2034;-49
2022/09/14 11:56:46;;;;;;;;;;;;;;;22.51;54.98;94721.94;10327418;28;2076;-42
2022/09/14 12:01:46;;;;;;;;;;;;;;;22.52;54.93;94713.69;10342670;28;2064;-48
2022/09/14 12:06:50;;;;;;;;;;;;;;;22.53;54.80;94717.91;10324835;28;2207;-48
2022/09/14 12:11:57;;;;;;;;;;;;;;;22.55;54.79;94710.44;10321687;28;2028;-48
2022/09/14 12:17:03;;;;;;;;;;;;;;;22.56;54.33;94709.38;10320671;28;2140;-48
2022/09/14 12:22:20;;;;;;;;;;;;;;;22.54;54.56;94698.34;10324536;28;2006;-48
2022/09/14 12:27:23;;;;;;;;;;;;;;;22.55;54.61;94702.53;10326962;28;2009;-48
2022/09/14 12:32:25;;;;;;;;;;;;;;;22.54;54.42;94706.25;10322647;28;2137;-48
2022/09/14 12:37:27;;;;;;;;;;;;;;;22.55;54.55;94714.94;10326506;28;2102;-48
2022/09/14 12:42:31;;;;;;;;;;;;;;;22.55;54.53;94723.66;10321943;28;2040;-48
2022/09/14 12:47:31;;;;;;;;;;;;;;;22.55;54.68;94712.31;10324404;28;2091;-48
2022/09/14 12:52:37;;;;;;;;;;;;;;;22.56;54.57;94735.78;10323394;28;2064;-48
2022/09/14 12:57:40;;;;;;;;;;;;;;;22.54;54.84;94730.03;10323963;28;2121;-48
2022/09/14 13:02:46;;;;;;;;;;;;;;;22.54;54.68;94737.97;10324909;28;2043;-48
2022/09/14 13:07:47;;;;;;;;;;;;;;;22.53;54.75;94712.63;10322338;28;2025;-48
2022/09/14 13:12:47;;;;;;;;;;;;;;;22.53;54.81;94699.41;10325612;28;2262;-48
2022/09/14 13:18:23;;;;;;;;;;;;;;;22.52;54.50;94708.41;10336811;28;2182;-48
2022/09/14 13:23:28;;;;;;;;;;;;;;;22.52;54.72;94703.13;10322828;28;2056;-48
2022/09/14 13:28:29;;;;;;;;;;;;;;;22.53;54.73;94694.13;10320883;28;2069;-44
2022/09/14 13:33:29;;;;;;;;;;;;;;;22.51;54.78;94685.75;10354107;28;2180;-48
2022/09/14 13:38:29;;;;;;;;;;;;;;;22.52;54.49;94686.53;10330375;28;2080;-48
2022/09/14 13:43:30;;;;;;;;;;;;;;;22.51;54.50;94683.09;10325480;28;2017;-48
2022/09/14 13:48:30;;;;;;;;;;;;;;;22.52;54.69;94671.44;10330412;28;2034;-48
2022/09/14 13:53:41;;;;;;;;;;;;;;;22.52;54.55;94665.41;10328598;28;2048;-48
2022/09/14 13:58:41;;;;;;;;;;;;;;;22.51;54.44;94664.63;10330680;28;2081;-48
2022/09/14 14:03:48;;;;;;;;;;;;;;;22.53;54.53;94672.22;10328919;28;2053;-48
2022/09/14 14:08:54;;;;;;;;;;;;;;;22.51;54.48;94685.75;10325906;28;2112;-48
2022/09/14 14:13:54;;;;;;;;;;;;;;;22.52;54.32;94687.28;10329124;28;1998;-48
2022/09/14 14:18:55;;;;;;;;;;;;;;;22.51;54.36;94696.31;10330118;28;2065;-48
2022/09/14 14:24:14;;;;;;;;;;;;;;;22.51;54.44;94691.03;10329392;28;2127;-48
2022/09/14 14:29:15;;;;;;;;;;;;;;;22.50;54.50;94686.81;10330208;28;2200;-48
2022/09/14 14:34:25;;;;;;;;;;;;;;;22.51;54.59;94684.97;10328818;28;2303;-48
2022/09/14 14:39:31;;;;;;;;;;;;;;;22.51;54.30;94674.41;10333619;28;1990;-48
2022/09/14 14:44:32;;;;;;;;;;;;;;;22.50;54.34;94667.56;10328233;28;2035;-48
2022/09/14 14:49:32;;;;;;;;;;;;;;;22.50;54.58;94672.84;10328626;28;2195;-47
2022/09/14 14:54:33;;;;;;;;;;;;;;;22.50;54.48;94670.97;10325692;28;2037;-48
2022/09/14 14:59:34;;;;;;;;;;;;;;;22.49;54.31;94674.72;10326611;28;2092;-48
2022/09/14 15:04:34;;;;;;;;;;;;;;;22.49;54.30;94676.56;10326984;28;2143;-48
2022/09/14 15:09:36;;;;;;;;;;;;;;;22.49;54.34;94676.56;10321116;28;2033;-48
2022/09/14 15:14:36;;;;;;;;;;;;;;;22.49;54.21;94692.41;10321405;28;2128;-48
2022/09/14 15:19:37;;;;;;;;;;;;;;;22.50;54.04;94717.75;10329275;28;2005;-48
2022/09/14 15:24:37;;;;;;;;;;;;;;;22.49;54.19;94727.53;10325041;28;2100;-48
2022/09/14 15:29:38;;;;;;;;;;;;;;;22.48;54.35;94733.13;10324356;28;2418;-48
2022/09/14 15:34:38;;;;;;;;;;;;;;;22.49;54.22;94739.94;10324248;28;2057;-48
2022/09/14 15:39:38;;;;;;;;;;;;;;;22.50;54.01;94744.91;10327033;28;2061;-48
2022/09/14 15:44:38;;;;;;;;;;;;;;;22.49;53.95;94753.94;10322070;28;2079;-48
2022/09/14 15:49:39;;;;;;;;;;;;;;;22.48;53.92;94784.06;10324343;28;2053;-42
2022/09/14 15:54:39;;;;;;;;;;;;;;;22.48;53.85;94797.25;10324987;28;1998;-43
2022/09/14 15:59:40;;;;;;;;;;;;;;;22.48;54.03;94794.63;10323851;28;2065;-43
2022/09/14 16:04:41;;;;;;;;;;;;;;;22.47;53.82;94811.56;10323861;28;2025;-44
2022/09/14 16:09:41;;;;;;;;;;;;;;;22.48;53.81;94776.13;10324349;28;2064;-42
2022/09/14 16:14:41;;;;;;;;;;;;;;;22.48;53.77;94780.66;10324696;28;1985;-44
2022/09/14 16:19:41;;;;;;;;;;;;;;;22.48;53.94;94786.69;10327214;28;2160;-41
2022/09/14 16:24:42;;;;;;;;;;;;;;;22.48;53.98;94778.78;10326787;28;2100;-43
2022/09/14 16:29:42;;;;;;;;;;;;;;;22.49;53.81;94776.94;10314491;28;2155;-49
2022/09/14 16:34:42;;;;;;;;;;;;;;;22.49;54.02;94767.16;10324594;28;1998;-49
2022/09/14 16:39:43;;;;;;;;;;;;;;;22.49;53.84;94746.03;10321816;28;1953;-49
2022/09/14 16:44:43;;;;;;;;;;;;;;;22.51;53.94;94758.91;10317203;28;2033;-42
2022/09/14 16:49:44;;;;;;;;;;;;;;;22.55;54.07;94754.56;10319004;28;2044;-40
2022/09/14 16:54:45;;;;;;;;;;;;;;;22.55;54.44;94736.06;10314191;28;2146;-47
2022/09/14 16:59:55;;;;;;;;;;;;;;;22.55;54.14;94726.28;10318628;28;1977;-47
2022/09/14 17:04:56;;;;;;;;;;;;;;;22.57;54.35;94721.47;10311266;28;2113;-47
2022/09/14 17:09:57;;;;;;;;;;;;;;;22.58;54.30;94746.06;10324489;28;1981;-47
2022/09/14 17:14:57;;;;;;;;;;;;;;;22.58;54.35;94741.56;10320859;28;2022;-47
2022/09/14 17:19:59;;;;;;;;;;;;;;;22.59;54.58;94732.53;10326423;28;2104;-47
2022/09/14 17:24:59;;;;;;;;;;;;;;;22.59;54.79;94724.63;10322216;28;2149;-47
2022/09/14 17:29:59;;;;;;;;;;;;;;;22.60;54.57;94730.69;10323420;28;2187;-47
2022/09/14 17:35:00;;;;;;;;;;;;;;;22.59;54.70;94740.47;10323697;28;2016;-47
2022/09/14 17:40:01;;;;;;;;;;;;;;;22.60;54.85;94725.41;10326355;28;2033;-47
2022/09/14 17:45:04;;;;;;;;;;;;;;;22.59;54.54;94724.63;10322662;28;2052;-47
2022/09/14 17:50:05;;;;;;;;;;;;;;;22.59;54.87;94745.75;10340703;28;2029;-47
2022/09/14 17:55:05;;;;;;;;;;;;;;;22.60;54.76;94747.31;10324941;28;2025;-47
2022/09/14 18:00:06;;;;;;;;;;;;;;;22.60;54.85;94741.25;10326281;28;2033;-47
2022/09/14 18:05:07;;;;;;;;;;;;;;;22.61;54.75;94737.50;10326512;28;2072;-47
2022/09/14 18:10:07;;;;;;;;;;;;;;;22.60;54.64;94725.41;10324394;28;2020;-46
2022/09/14 18:15:08;;;;;;;;;;;;;;;22.60;54.95;94718.25;10319771;28;2002;-46
2022/09/14 18:20:08;;;;;;;;;;;;;;;22.61;55.09;94716.38;10318490;28;2089;-48
2022/09/14 18:25:09;;;;;;;;;;;;;;;22.60;54.73;94712.97;10338193;28;2044;-47
2022/09/14 18:30:09;;;;;;;;;;;;;;;22.61;54.88;94738.28;10323621;28;2171;-48
2022/09/14 18:35:11;;;;;;;;;;;;;;;22.61;54.93;94743.56;10322164;28;1990;-48
2022/09/14 18:40:12;;;;;;;;;;;;;;;22.61;55.11;94748.06;10319364;28;2065;-47
2022/09/14 18:45:12;;;;;;;;;;;;;;;22.63;54.82;94748.53;10319294;28;2045;-48
2022/09/14 18:50:13;;;;;;;;;;;;;;;22.62;54.85;94750.41;10323083;28;2110;-47
2022/09/14 18:55:14;;;;;;;;;;;;;;;22.62;54.93;94747.78;10320122;28;2080;-48
2022/09/14 19:00:16;;;;;;;;;;;;;;;22.62;55.27;94745.13;10321058;28;2025;-48
2022/09/14 19:05:16;;;;;;;;;;;;;;;22.64;54.87;94728.97;10321004;28;1933;-47
2022/09/14 19:10:16;;;;;;;;;;;;;;;22.64;55.27;94728.97;10320540;28;2041;-48
2022/09/14 19:15:17;;;;;;;;;;;;;;;22.65;55.39;94743.72;10320686;28;2088;-47
2022/09/14 19:20:18;;;;;;;;;;;;;;;22.67;55.30;94721.19;10323473;28;2036;-47
2022/09/14 19:25:18;;;;;;;;;;;;;;;22.67;55.45;94726.47;10324705;28;2029;-47
2022/09/14 19:30:18;;;;;;;;;;;;;;;22.70;55.16;94719.03;10320528;28;2072;-47
2022/09/14 19:35:19;;;;;;;;;;;;;;;22.68;55.27;94714.06;10323157;28;2022;-47
2022/09/14 19:40:20;;;;;;;;;;;;;;;22.72;55.33;94735.34;10322653;28;2001;-47
2022/09/14 19:45:20;;;;;;;;;;;;;;;22.73;55.13;94742.94;10318379;28;2098;-47
2022/09/14 19:50:20;;;;;;;;;;;;;;;22.77;55.04;94765.03;10317361;28;2048;-47
2022/09/14 19:55:26;;;;;;;;;;;;;;;22.77;55.25;94762.41;10484603;27;2035;-40
2022/09/14 20:00:27;;;;;;;;;;;;;;;22.78;55.17;94761.28;10472719;28;2011;-48
2022/09/14 20:05:27;;;;;;;;;;;;;;;22.74;55.28;94762.22;10473903;28;2103;-48
2022/09/14 20:10:27;;;;;;;;;;;;;;;22.76;54.90;94762.69;10476301;28;2097;-48
2022/09/14 20:15:30;;;;;;;;;;;;;;;22.72;54.96;94767.81;10468254;28;2014;-47
2022/09/14 20:20:34;;;;;;;;;;;;;;;22.73;54.89;94763.31;10491042;28;2069;-48
2022/09/14 20:25:34;;;;;;;;;;;;;;;22.75;54.75;94761.16;10481535;28;2059;-47
2022/09/14 20:30:34;;;;;;;;;;;;;;;22.76;54.92;94765.31;10508780;28;2083;-47
2022/09/14 20:35:35;;;;;;;;;;;;;;;22.76;55.08;94775.91;10489733;28;2148;-47
2022/09/14 20:40:35;;;;;;;;;;;;;;;22.75;54.96;94774.34;10486244;28;1896;-47
2022/09/14 20:45:36;;;;;;;;;;;;;;;22.75;55.10;94780.41;10481893;28;2065;-48
2022/09/14 20:50:36;;;;;;;;;;;;;;;22.75;54.92;94763.78;10477449;28;2115;-48
2022/09/14 20:55:36;;;;;;;;;;;;;;;22.74;54.91;94776.22;10482398;28;1999;-47
2022/09/14 21:00:37;;;;;;;;;;;;;;;22.74;55.10;94786.00;10513156;28;2008;-48
2022/09/14 21:05:37;;;;;;;;;;;;;;;22.74;55.08;94772.78;10465645;28;2044;-48
2022/09/14 21:10:37;;;;;;;;;;;;;;;22.73;55.02;94761.44;10457789;28;2086;-48
2022/09/14 21:15:43;;;;;;;;;;;;;;;22.72;54.84;94753.81;10460155;28;2112;-48
2022/09/14 21:20:43;;;;;;;;;;;;;;;22.71;55.16;94762.84;10455673;28;2019;-48
2022/09/14 21:25:43;;;;;;;;;;;;;;;22.71;55.01;94758.31;10454156;28;2071;-48
2022/09/14 21:30:44;;;;;;;;;;;;;;;22.70;54.59;94777.91;10455133;28;2066;-48
2022/09/14 21:35:44;;;;;;;;;;;;;;;22.70;54.72;94774.50;10450297;28;2010;-47
2022/09/14 21:40:44;;;;;;;;;;;;;;;22.70;54.52;94774.50;10455494;28;1975;-48
2022/09/14 21:45:44;;;;;;;;;;;;;;;22.71;54.91;94781.34;10454353;28;2067;-48
2022/09/14 21:50:45;;;;;;;;;;;;;;;22.70;54.58;94785.84;10461942;28;2074;-48
2022/09/14 21:55:45;;;;;;;;;;;;;;;22.70;54.43;94785.84;10459170;28;2519;-47
2022/09/14 22:00:45;;;;;;;;;;;;;;;22.70;54.39;94791.13;10472379;28;2060;-48
2022/09/14 22:05:53;;;;;;;;;;;;;;;22.70;54.41;94790.34;10465900;28;2037;-48
2022/09/14 22:10:54;;;;;;;;;;;;;;;22.67;54.03;94791.72;10459043;28;2121;-48
2022/09/14 22:15:54;;;;;;;;;;;;;;;22.70;54.07;94782.41;10463719;28;2128;-48
2022/09/14 22:20:58;;;;;;;;;;;;;;;22.67;54.21;94781.94;10464969;28;2039;-48
2022/09/14 22:25:58;;;;;;;;;;;;;;;22.67;54.14;94792.50;10459591;28;2023;-48
2022/09/14 22:31:05;;;;;;;;;;;;;;;22.68;53.80;94795.94;10458626;28;2101;-48
2022/09/14 22:36:06;;;;;;;;;;;;;;;22.67;53.63;94793.63;10463760;28;2465;-48
2022/09/14 22:41:09;;;;;;;;;;;;;;;22.67;53.80;94796.25;10462825;28;2047;-48
2022/09/14 22:46:09;;;;;;;;;;;;;;;22.65;53.35;94792.03;10461722;28;2007;-47
2022/09/14 22:51:11;;;;;;;;;;;;;;;22.65;53.16;94786.75;10459068;28;1964;-48
2022/09/14 22:56:15;;;;;;;;;;;;;;;22.64;53.23;94795.78;10451516;28;2143;-48
2022/09/14 23:01:25;;;;;;;;;;;;;;;22.63;53.31;94804.78;10467114;28;2030;-47
2022/09/14 23:06:39;;;;;;;;;;;;;;;22.65;53.28;94809.75;10455004;28;2206;-48
2022/09/14 23:11:41;;;;;;;;;;;;;;;22.63;52.97;94810.06;10453712;28;2081;-48
2022/09/14 23:16:43;;;;;;;;;;;;;;;22.64;53.04;94795.78;10460840;28;2168;-47
2022/09/14 23:21:43;;;;;;;;;;;;;;;22.64;53.17;94798.44;10461325;28;2055;-47
2022/09/14 23:26:44;;;;;;;;;;;;;;;22.65;53.23;94796.53;10461336;28;2118;-47
2022/09/14 23:31:44;;;;;;;;;;;;;;;22.64;52.97;94798.44;10458137;28;2058;-46
2022/09/14 23:36:44;;;;;;;;;;;;;;;22.65;53.29;94801.81;10456944;28;2013;-47
2022/09/14 23:41:45;;;;;;;;;;;;;;;22.65;52.89;94805.25;10460869;28;2108;-48
2022/09/14 23:46:45;;;;;;;;;;;;;;;22.65;53.23;94813.19;10459984;28;2066;-47
2022/09/14 23:51:45;;;;;;;;;;;;;;;22.65;53.07;94807.91;10460552;28;2052;-47
2022/09/14 23:56:46;;;;;;;;;;;;;;;22.65;53.32;94813.19;10459318;28;2038;-46
